sensor_id;sensor_type;location;lat;lon;timestamp;temperature;humidity
24645;DHT22;12780;45.502;9.146;2022-07-29T00:02:14;24.00;99.90
24645;DHT22;12780;45.502;9.146;2022-07-29T00:04:40;24.00;99.90
24645;DHT22;12780;45.502;9.146;2022-07-29T00:07:05;24.00;99.90
24645;DHT22;12780;45.502;9.146;2022-07-29T00:09:32;24.00;99.90
24645;DHT22;12780;45.502;9.146;2022-07-29T00:12:00;24.00;99.90
24645;DHT22;12780;45.502;9.146;2022-07-29T00:14:28;23.90;99.90
24645;DHT22;12780;45.502;9.146;2022-07-29T00:16:53;24.00;99.90
24645;DHT22;12780;45.502;9.146;2022-07-29T00:19:19;24.00;99.90
24645;DHT22;12780;45.502;9.146;2022-07-29T00:21:45;24.00;99.90
24645;DHT22;12780;45.502;9.146;2022-07-29T00:24:10;24.00;99.90
24645;DHT22;12780;45.502;9.146;2022-07-29T00:26:36;24.00;99.90
24645;DHT22;12780;45.502;9.146;2022-07-29T00:29:03;24.10;99.90
24645;DHT22;12780;45.502;9.146;2022-07-29T00:31:29;24.10;99.90
24645;DHT22;12780;45.502;9.146;2022-07-29T00:33:54;24.20;99.90
24645;DHT22;12780;45.502;9.146;2022-07-29T00:36:20;24.20;99.90
24645;DHT22;12780;45.502;9.146;2022-07-29T00:38:50;24.20;99.90
24645;DHT22;12780;45.502;9.146;2022-07-29T00:41:16;24.30;99.90
24645;DHT22;12780;45.502;9.146;2022-07-29T00:43:42;24.40;99.90
24645;DHT22;12780;45.502;9.146;2022-07-29T00:46:08;24.40;99.90
24645;DHT22;12780;45.502;9.146;2022-07-29T00:48:34;24.40;99.90
24645;DHT22;12780;45.502;9.146;2022-07-29T00:51:02;24.40;99.90
24645;DHT22;12780;45.502;9.146;2022-07-29T00:53:29;24.40;99.90
24645;DHT22;12780;45.502;9.146;2022-07-29T00:55:56;24.40;99.90
24645;DHT22;12780;45.502;9.146;2022-07-29T00:58:22;24.40;99.90
24645;DHT22;12780;45.502;9.146;2022-07-29T01:00:48;24.40;99.90
24645;DHT22;12780;45.502;9.146;2022-07-29T01:03:14;24.50;99.90
24645;DHT22;12780;45.502;9.146;2022-07-29T01:05:41;24.50;99.90
24645;DHT22;12780;45.502;9.146;2022-07-29T01:08:08;24.40;99.90
24645;DHT22;12780;45.502;9.146;2022-07-29T01:10:36;24.40;99.90
24645;DHT22;12780;45.502;9.146;2022-07-29T01:13:03;24.30;99.90
24645;DHT22;12780;45.502;9.146;2022-07-29T01:15:30;24.30;99.90
24645;DHT22;12780;45.502;9.146;2022-07-29T01:28:58;24.30;99.90
24645;DHT22;12780;45.502;9.146;2022-07-29T01:31:31;24.30;99.90
24645;DHT22;12780;45.502;9.146;2022-07-29T01:34:02;24.40;99.90
24645;DHT22;12780;45.502;9.146;2022-07-29T01:39:26;24.40;99.90
24645;DHT22;12780;45.502;9.146;2022-07-29T01:44:35;24.30;99.90
24645;DHT22;12780;45.502;9.146;2022-07-29T01:47:11;24.30;99.90
24645;DHT22;12780;45.502;9.146;2022-07-29T01:49:42;24.30;99.90
24645;DHT22;12780;45.502;9.146;2022-07-29T01:52:36;24.30;99.90
24645;DHT22;12780;45.502;9.146;2022-07-29T01:55:04;24.30;99.90
24645;DHT22;12780;45.502;9.146;2022-07-29T01:57:33;24.30;99.90
24645;DHT22;12780;45.502;9.146;2022-07-29T02:00:02;24.40;99.90
24645;DHT22;12780;45.502;9.146;2022-07-29T02:02:30;24.40;99.90
24645;DHT22;12780;45.502;9.146;2022-07-29T02:04:57;24.50;99.90
24645;DHT22;12780;45.502;9.146;2022-07-29T02:07:26;24.40;99.90
24645;DHT22;12780;45.502;9.146;2022-07-29T02:09:54;24.40;99.90
24645;DHT22;12780;45.502;9.146;2022-07-29T02:12:22;24.40;99.90
24645;DHT22;12780;45.502;9.146;2022-07-29T02:14:51;24.40;99.90
24645;DHT22;12780;45.502;9.146;2022-07-29T02:17:28;24.40;99.90
24645;DHT22;12780;45.502;9.146;2022-07-29T02:19:59;24.30;99.90
24645;DHT22;12780;45.502;9.146;2022-07-29T02:22:28;24.40;99.90
24645;DHT22;12780;45.502;9.146;2022-07-29T02:24:55;24.40;99.90
24645;DHT22;12780;45.502;9.146;2022-07-29T02:27:23;24.40;99.90
24645;DHT22;12780;45.502;9.146;2022-07-29T02:29:51;24.40;99.90
24645;DHT22;12780;45.502;9.146;2022-07-29T02:32:19;24.40;99.90
24645;DHT22;12780;45.502;9.146;2022-07-29T02:34:46;24.40;99.90
24645;DHT22;12780;45.502;9.146;2022-07-29T02:37:13;24.40;99.90
24645;DHT22;12780;45.502;9.146;2022-07-29T02:39:42;24.40;99.90
24645;DHT22;12780;45.502;9.146;2022-07-29T02:42:12;24.30;99.90
24645;DHT22;12780;45.502;9.146;2022-07-29T02:44:38;24.40;99.90
24645;DHT22;12780;45.502;9.146;2022-07-29T02:49:55;24.40;99.90
24645;DHT22;12780;45.502;9.146;2022-07-29T02:52:39;24.30;99.90
24645;DHT22;12780;45.502;9.146;2022-07-29T02:57:46;24.30;99.90
24645;DHT22;12780;45.502;9.146;2022-07-29T03:00:13;24.30;99.90
24645;DHT22;12780;45.502;9.146;2022-07-29T03:02:42;24.30;99.90
24645;DHT22;12780;45.502;9.146;2022-07-29T03:05:13;24.30;99.90
24645;DHT22;12780;45.502;9.146;2022-07-29T03:07:43;24.30;99.90
24645;DHT22;12780;45.502;9.146;2022-07-29T03:10:11;24.40;99.90
24645;DHT22;12780;45.502;9.146;2022-07-29T03:12:38;24.30;99.90
24645;DHT22;12780;45.502;9.146;2022-07-29T03:15:05;24.40;99.90
24645;DHT22;12780;45.502;9.146;2022-07-29T03:17:31;24.30;99.90
24645;DHT22;12780;45.502;9.146;2022-07-29T03:19:58;24.30;99.90
24645;DHT22;12780;45.502;9.146;2022-07-29T03:22:25;24.30;99.90
24645;DHT22;12780;45.502;9.146;2022-07-29T03:24:50;24.30;99.90
24645;DHT22;12780;45.502;9.146;2022-07-29T03:27:16;24.40;99.90
24645;DHT22;12780;45.502;9.146;2022-07-29T03:29:42;24.40;99.90
24645;DHT22;12780;45.502;9.146;2022-07-29T03:32:07;24.40;99.90
24645;DHT22;12780;45.502;9.146;2022-07-29T03:34:33;24.40;99.90
24645;DHT22;12780;45.502;9.146;2022-07-29T03:36:59;24.30;99.90
24645;DHT22;12780;45.502;9.146;2022-07-29T03:39:29;24.30;99.90
24645;DHT22;12780;45.502;9.146;2022-07-29T03:41:56;24.30;99.90
24645;DHT22;12780;45.502;9.146;2022-07-29T03:44:25;24.30;99.90
24645;DHT22;12780;45.502;9.146;2022-07-29T03:46:51;24.30;99.90
24645;DHT22;12780;45.502;9.146;2022-07-29T03:49:20;24.30;99.90
24645;DHT22;12780;45.502;9.146;2022-07-29T03:51:47;24.30;99.90
24645;DHT22;12780;45.502;9.146;2022-07-29T03:54:13;24.20;99.90
24645;DHT22;12780;45.502;9.146;2022-07-29T03:56:43;24.20;99.90
24645;DHT22;12780;45.502;9.146;2022-07-29T03:59:16;24.10;99.90
24645;DHT22;12780;45.502;9.146;2022-07-29T04:01:43;24.10;99.90
24645;DHT22;12780;45.502;9.146;2022-07-29T04:04:09;24.10;99.90
24645;DHT22;12780;45.502;9.146;2022-07-29T04:06:39;24.10;99.90
24645;DHT22;12780;45.502;9.146;2022-07-29T04:09:05;24.00;99.90
24645;DHT22;12780;45.502;9.146;2022-07-29T04:11:31;24.10;99.90
24645;DHT22;12780;45.502;9.146;2022-07-29T04:13:57;24.10;99.90
24645;DHT22;12780;45.502;9.146;2022-07-29T04:16:22;24.20;99.90
24645;DHT22;12780;45.502;9.146;2022-07-29T04:18:48;24.10;99.90
24645;DHT22;12780;45.502;9.146;2022-07-29T04:21:13;24.20;99.90
24645;DHT22;12780;45.502;9.146;2022-07-29T04:23:39;24.20;99.90
24645;DHT22;12780;45.502;9.146;2022-07-29T04:26:06;24.20;99.90
24645;DHT22;12780;45.502;9.146;2022-07-29T04:28:35;24.20;99.90
24645;DHT22;12780;45.502;9.146;2022-07-29T04:31:00;24.20;99.90
24645;DHT22;12780;45.502;9.146;2022-07-29T04:33:26;24.20;99.90
24645;DHT22;12780;45.502;9.146;2022-07-29T04:35:51;24.20;99.90
24645;DHT22;12780;45.502;9.146;2022-07-29T04:38:17;24.20;99.90
24645;DHT22;12780;45.502;9.146;2022-07-29T04:40:43;24.20;99.90
24645;DHT22;12780;45.502;9.146;2022-07-29T04:43:09;24.10;99.90
24645;DHT22;12780;45.502;9.146;2022-07-29T04:45:34;24.10;99.90
24645;DHT22;12780;45.502;9.146;2022-07-29T04:48:00;24.00;99.90
24645;DHT22;12780;45.502;9.146;2022-07-29T04:50:25;24.10;99.90
24645;DHT22;12780;45.502;9.146;2022-07-29T04:52:51;24.10;99.90
24645;DHT22;12780;45.502;9.146;2022-07-29T04:55:17;24.20;99.90
24645;DHT22;12780;45.502;9.146;2022-07-29T04:57:43;24.20;99.90
24645;DHT22;12780;45.502;9.146;2022-07-29T05:00:09;24.20;99.90
24645;DHT22;12780;45.502;9.146;2022-07-29T05:02:35;24.20;99.90
24645;DHT22;12780;45.502;9.146;2022-07-29T05:05:00;24.20;99.90
24645;DHT22;12780;45.502;9.146;2022-07-29T05:07:26;24.30;99.90
24645;DHT22;12780;45.502;9.146;2022-07-29T05:09:52;24.30;99.90
24645;DHT22;12780;45.502;9.146;2022-07-29T05:12:18;24.30;99.90
24645;DHT22;12780;45.502;9.146;2022-07-29T05:14:44;24.40;99.90
24645;DHT22;12780;45.502;9.146;2022-07-29T05:17:09;24.40;99.90
24645;DHT22;12780;45.502;9.146;2022-07-29T05:19:35;24.50;99.90
24645;DHT22;12780;45.502;9.146;2022-07-29T05:22:01;24.40;99.90
24645;DHT22;12780;45.502;9.146;2022-07-29T05:24:26;24.50;99.90
24645;DHT22;12780;45.502;9.146;2022-07-29T05:26:52;24.50;99.90
24645;DHT22;12780;45.502;9.146;2022-07-29T05:29:18;24.40;99.90
24645;DHT22;12780;45.502;9.146;2022-07-29T05:31:44;24.40;99.90
24645;DHT22;12780;45.502;9.146;2022-07-29T05:34:09;24.40;99.90
24645;DHT22;12780;45.502;9.146;2022-07-29T05:36:35;24.40;99.90
24645;DHT22;12780;45.502;9.146;2022-07-29T05:39:01;24.40;99.90
24645;DHT22;12780;45.502;9.146;2022-07-29T05:41:26;24.60;99.90
24645;DHT22;12780;45.502;9.146;2022-07-29T05:43:52;24.60;99.90
24645;DHT22;12780;45.502;9.146;2022-07-29T05:46:18;24.60;99.90
24645;DHT22;12780;45.502;9.146;2022-07-29T05:48:43;24.60;99.90
24645;DHT22;12780;45.502;9.146;2022-07-29T05:51:09;24.70;99.90
24645;DHT22;12780;45.502;9.146;2022-07-29T05:53:35;24.80;99.90
24645;DHT22;12780;45.502;9.146;2022-07-29T05:56:03;24.80;99.90
24645;DHT22;12780;45.502;9.146;2022-07-29T05:58:30;24.80;99.90
24645;DHT22;12780;45.502;9.146;2022-07-29T06:00:56;24.90;99.90
24645;DHT22;12780;45.502;9.146;2022-07-29T06:03:25;24.80;99.90
24645;DHT22;12780;45.502;9.146;2022-07-29T06:05:50;24.80;99.90
24645;DHT22;12780;45.502;9.146;2022-07-29T06:08:16;24.80;99.90
24645;DHT22;12780;45.502;9.146;2022-07-29T06:10:42;24.80;99.90
24645;DHT22;12780;45.502;9.146;2022-07-29T06:13:08;24.80;99.90
24645;DHT22;12780;45.502;9.146;2022-07-29T06:15:34;24.70;99.90
24645;DHT22;12780;45.502;9.146;2022-07-29T06:18:00;24.80;99.90
24645;DHT22;12780;45.502;9.146;2022-07-29T06:20:27;24.80;99.90
24645;DHT22;12780;45.502;9.146;2022-07-29T06:22:54;24.70;99.90
24645;DHT22;12780;45.502;9.146;2022-07-29T06:25:20;24.70;99.90
24645;DHT22;12780;45.502;9.146;2022-07-29T06:27:46;24.70;99.90
24645;DHT22;12780;45.502;9.146;2022-07-29T06:30:12;24.80;99.90
24645;DHT22;12780;45.502;9.146;2022-07-29T06:32:38;24.80;99.90
24645;DHT22;12780;45.502;9.146;2022-07-29T06:35:04;25.00;99.90
24645;DHT22;12780;45.502;9.146;2022-07-29T06:37:29;25.00;99.90
24645;DHT22;12780;45.502;9.146;2022-07-29T06:39:55;25.00;99.90
24645;DHT22;12780;45.502;9.146;2022-07-29T06:42:43;25.10;99.90
24645;DHT22;12780;45.502;9.146;2022-07-29T06:45:10;25.20;99.90
24645;DHT22;12780;45.502;9.146;2022-07-29T06:47:36;25.20;99.90
24645;DHT22;12780;45.502;9.146;2022-07-29T06:50:03;25.30;99.90
24645;DHT22;12780;45.502;9.146;2022-07-29T06:52:28;25.30;99.90
24645;DHT22;12780;45.502;9.146;2022-07-29T06:54:54;25.40;99.90
24645;DHT22;12780;45.502;9.146;2022-07-29T06:57:21;25.40;99.90
24645;DHT22;12780;45.502;9.146;2022-07-29T06:59:47;25.50;99.90
24645;DHT22;12780;45.502;9.146;2022-07-29T07:02:13;25.60;99.90
24645;DHT22;12780;45.502;9.146;2022-07-29T07:04:39;25.70;99.90
24645;DHT22;12780;45.502;9.146;2022-07-29T07:07:04;25.80;99.90
24645;DHT22;12780;45.502;9.146;2022-07-29T07:09:30;25.90;99.90
24645;DHT22;12780;45.502;9.146;2022-07-29T07:11:56;26.00;99.90
24645;DHT22;12780;45.502;9.146;2022-07-29T07:14:21;26.20;99.90
24645;DHT22;12780;45.502;9.146;2022-07-29T07:16:47;26.30;99.90
24645;DHT22;12780;45.502;9.146;2022-07-29T07:19:13;26.40;99.90
24645;DHT22;12780;45.502;9.146;2022-07-29T07:21:38;26.50;99.90
24645;DHT22;12780;45.502;9.146;2022-07-29T07:24:04;26.60;99.90
24645;DHT22;12780;45.502;9.146;2022-07-29T07:26:30;26.70;99.90
24645;DHT22;12780;45.502;9.146;2022-07-29T07:28:56;26.80;99.90
24645;DHT22;12780;45.502;9.146;2022-07-29T07:31:22;26.80;99.90
24645;DHT22;12780;45.502;9.146;2022-07-29T07:33:48;26.80;99.90
24645;DHT22;12780;45.502;9.146;2022-07-29T07:36:14;26.90;99.90
24645;DHT22;12780;45.502;9.146;2022-07-29T07:38:39;26.90;99.90
24645;DHT22;12780;45.502;9.146;2022-07-29T07:41:05;26.90;99.90
24645;DHT22;12780;45.502;9.146;2022-07-29T07:43:31;26.90;99.90
24645;DHT22;12780;45.502;9.146;2022-07-29T07:45:57;26.90;99.90
24645;DHT22;12780;45.502;9.146;2022-07-29T07:48:22;26.90;99.90
24645;DHT22;12780;45.502;9.146;2022-07-29T07:50:48;27.00;99.90
24645;DHT22;12780;45.502;9.146;2022-07-29T07:53:14;27.10;99.90
24645;DHT22;12780;45.502;9.146;2022-07-29T07:55:41;27.20;99.90
24645;DHT22;12780;45.502;9.146;2022-07-29T07:58:07;27.20;99.90
24645;DHT22;12780;45.502;9.146;2022-07-29T08:00:33;27.20;99.90
24645;DHT22;12780;45.502;9.146;2022-07-29T08:02:59;27.20;99.90
24645;DHT22;12780;45.502;9.146;2022-07-29T08:05:25;27.20;99.90
24645;DHT22;12780;45.502;9.146;2022-07-29T08:07:50;27.20;99.90
24645;DHT22;12780;45.502;9.146;2022-07-29T08:10:17;27.40;99.90
24645;DHT22;12780;45.502;9.146;2022-07-29T08:13:05;27.40;99.90
24645;DHT22;12780;45.502;9.146;2022-07-29T08:15:32;27.50;99.90
24645;DHT22;12780;45.502;9.146;2022-07-29T08:17:58;27.60;99.90
24645;DHT22;12780;45.502;9.146;2022-07-29T08:20:24;27.70;99.90
24645;DHT22;12780;45.502;9.146;2022-07-29T08:22:49;27.70;99.90
24645;DHT22;12780;45.502;9.146;2022-07-29T08:25:15;27.70;99.90
24645;DHT22;12780;45.502;9.146;2022-07-29T08:27:43;27.80;99.90
24645;DHT22;12780;45.502;9.146;2022-07-29T08:30:09;27.80;99.90
24645;DHT22;12780;45.502;9.146;2022-07-29T08:32:35;27.90;99.90
24645;DHT22;12780;45.502;9.146;2022-07-29T08:35:01;28.00;99.90
24645;DHT22;12780;45.502;9.146;2022-07-29T08:37:27;28.20;99.90
24645;DHT22;12780;45.502;9.146;2022-07-29T08:39:52;28.40;99.90
24645;DHT22;12780;45.502;9.146;2022-07-29T08:42:19;28.50;99.90
24645;DHT22;12780;45.502;9.146;2022-07-29T08:44:45;28.80;99.90
24645;DHT22;12780;45.502;9.146;2022-07-29T08:47:13;28.90;99.90
24645;DHT22;12780;45.502;9.146;2022-07-29T08:49:39;29.00;99.90
24645;DHT22;12780;45.502;9.146;2022-07-29T08:52:05;29.10;99.90
24645;DHT22;12780;45.502;9.146;2022-07-29T08:54:32;29.30;99.90
24645;DHT22;12780;45.502;9.146;2022-07-29T08:56:58;29.40;99.90
24645;DHT22;12780;45.502;9.146;2022-07-29T08:59:27;29.40;99.90
24645;DHT22;12780;45.502;9.146;2022-07-29T09:01:54;29.40;99.90
24645;DHT22;12780;45.502;9.146;2022-07-29T09:04:20;29.30;99.90
24645;DHT22;12780;45.502;9.146;2022-07-29T09:06:50;29.30;99.90
24645;DHT22;12780;45.502;9.146;2022-07-29T09:09:16;29.30;99.90
24645;DHT22;12780;45.502;9.146;2022-07-29T09:11:43;29.30;99.90
24645;DHT22;12780;45.502;9.146;2022-07-29T09:14:11;29.30;99.90
24645;DHT22;12780;45.502;9.146;2022-07-29T09:16:55;29.20;99.90
24645;DHT22;12780;45.502;9.146;2022-07-29T09:19:34;29.20;99.90
24645;DHT22;12780;45.502;9.146;2022-07-29T09:22:02;29.20;99.90
24645;DHT22;12780;45.502;9.146;2022-07-29T09:24:44;29.20;99.90
24645;DHT22;12780;45.502;9.146;2022-07-29T09:27:20;29.10;99.90
24645;DHT22;12780;45.502;9.146;2022-07-29T09:29:46;29.00;99.90
24645;DHT22;12780;45.502;9.146;2022-07-29T09:32:12;28.90;99.90
24645;DHT22;12780;45.502;9.146;2022-07-29T09:34:38;28.90;99.90
24645;DHT22;12780;45.502;9.146;2022-07-29T09:37:04;29.00;99.90
24645;DHT22;12780;45.502;9.146;2022-07-29T09:41:59;29.10;99.90
24645;DHT22;12780;45.502;9.146;2022-07-29T09:44:26;29.10;99.90
24645;DHT22;12780;45.502;9.146;2022-07-29T09:47:00;29.10;99.90
24645;DHT22;12780;45.502;9.146;2022-07-29T09:49:34;29.20;99.90
24645;DHT22;12780;45.502;9.146;2022-07-29T09:52:08;29.50;99.90
24645;DHT22;12780;45.502;9.146;2022-07-29T09:54:35;29.60;99.90
24645;DHT22;12780;45.502;9.146;2022-07-29T09:57:05;29.70;99.90
24645;DHT22;12780;45.502;9.146;2022-07-29T09:59:32;29.90;99.90
24645;DHT22;12780;45.502;9.146;2022-07-29T10:01:59;30.00;99.90
24645;DHT22;12780;45.502;9.146;2022-07-29T10:04:39;30.10;99.90
24645;DHT22;12780;45.502;9.146;2022-07-29T10:07:05;30.20;99.90
24645;DHT22;12780;45.502;9.146;2022-07-29T10:09:32;30.40;99.90
24645;DHT22;12780;45.502;9.146;2022-07-29T10:12:05;30.50;99.90
24645;DHT22;12780;45.502;9.146;2022-07-29T10:14:31;30.50;99.90
24645;DHT22;12780;45.502;9.146;2022-07-29T10:16:59;30.50;99.90
24645;DHT22;12780;45.502;9.146;2022-07-29T10:19:29;30.50;99.90
24645;DHT22;12780;45.502;9.146;2022-07-29T10:21:59;30.50;99.90
24645;DHT22;12780;45.502;9.146;2022-07-29T10:24:29;30.50;99.90
24645;DHT22;12780;45.502;9.146;2022-07-29T10:26:57;30.50;99.90
24645;DHT22;12780;45.502;9.146;2022-07-29T10:29:23;30.50;99.90
24645;DHT22;12780;45.502;9.146;2022-07-29T10:35:18;30.70;99.90
24645;DHT22;12780;45.502;9.146;2022-07-29T10:38:10;30.80;99.90
24645;DHT22;12780;45.502;9.146;2022-07-29T10:40:54;30.80;99.90
24645;DHT22;12780;45.502;9.146;2022-07-29T10:43:44;30.80;99.90
24645;DHT22;12780;45.502;9.146;2022-07-29T10:46:11;31.00;99.90
24645;DHT22;12780;45.502;9.146;2022-07-29T10:54:17;31.50;99.90
24645;DHT22;12780;45.502;9.146;2022-07-29T10:56:43;31.80;99.90
24645;DHT22;12780;45.502;9.146;2022-07-29T11:01:48;32.00;99.90
24645;DHT22;12780;45.502;9.146;2022-07-29T11:04:15;32.00;99.90
24645;DHT22;12780;45.502;9.146;2022-07-29T11:09:26;32.10;99.90
24645;DHT22;12780;45.502;9.146;2022-07-29T11:11:52;32.10;99.90
24645;DHT22;12780;45.502;9.146;2022-07-29T11:14:58;32.00;99.90
24645;DHT22;12780;45.502;9.146;2022-07-29T11:17:24;31.90;99.90
24645;DHT22;12780;45.502;9.146;2022-07-29T11:19:50;32.00;99.90
24645;DHT22;12780;45.502;9.146;2022-07-29T11:22:33;32.00;99.90
24645;DHT22;12780;45.502;9.146;2022-07-29T11:25:14;32.00;99.90
24645;DHT22;12780;45.502;9.146;2022-07-29T11:27:40;31.90;99.90
24645;DHT22;12780;45.502;9.146;2022-07-29T11:30:09;31.90;99.90
24645;DHT22;12780;45.502;9.146;2022-07-29T11:32:37;31.70;99.90
24645;DHT22;12780;45.502;9.146;2022-07-29T11:35:21;31.60;99.90
24645;DHT22;12780;45.502;9.146;2022-07-29T11:41:25;31.70;99.90
24645;DHT22;12780;45.502;9.146;2022-07-29T11:43:57;31.80;99.90
24645;DHT22;12780;45.502;9.146;2022-07-29T11:46:49;31.80;99.90
24645;DHT22;12780;45.502;9.146;2022-07-29T11:49:26;31.60;99.90
24645;DHT22;12780;45.502;9.146;2022-07-29T11:51:53;31.40;99.90
24645;DHT22;12780;45.502;9.146;2022-07-29T11:54:25;31.30;99.90
24645;DHT22;12780;45.502;9.146;2022-07-29T11:56:52;31.40;99.90
24645;DHT22;12780;45.502;9.146;2022-07-29T11:59:19;31.30;99.90
24645;DHT22;12780;45.502;9.146;2022-07-29T12:01:54;31.50;99.90
24645;DHT22;12780;45.502;9.146;2022-07-29T12:04:20;31.60;99.90
24645;DHT22;12780;45.502;9.146;2022-07-29T12:06:53;31.70;99.90
24645;DHT22;12780;45.502;9.146;2022-07-29T12:09:19;31.80;99.90
24645;DHT22;12780;45.502;9.146;2022-07-29T12:11:47;31.80;99.90
24645;DHT22;12780;45.502;9.146;2022-07-29T12:14:29;31.90;99.90
24645;DHT22;12780;45.502;9.146;2022-07-29T12:16:55;31.90;99.90
24645;DHT22;12780;45.502;9.146;2022-07-29T12:19:21;31.90;99.90
24645;DHT22;12780;45.502;9.146;2022-07-29T12:21:48;32.00;99.90
24645;DHT22;12780;45.502;9.146;2022-07-29T12:24:14;32.10;99.90
24645;DHT22;12780;45.502;9.146;2022-07-29T12:26:55;32.30;99.90
24645;DHT22;12780;45.502;9.146;2022-07-29T12:29:21;32.60;99.90
24645;DHT22;12780;45.502;9.146;2022-07-29T12:31:52;32.80;99.90
24645;DHT22;12780;45.502;9.146;2022-07-29T12:34:22;33.00;99.90
24645;DHT22;12780;45.502;9.146;2022-07-29T12:36:48;33.00;99.90
24645;DHT22;12780;45.502;9.146;2022-07-29T12:39:15;33.00;99.90
24645;DHT22;12780;45.502;9.146;2022-07-29T12:41:41;33.10;99.90
24645;DHT22;12780;45.502;9.146;2022-07-29T12:44:07;33.10;99.90
24645;DHT22;12780;45.502;9.146;2022-07-29T12:46:33;33.20;99.90
24645;DHT22;12780;45.502;9.146;2022-07-29T12:48:59;33.30;99.90
24645;DHT22;12780;45.502;9.146;2022-07-29T12:54:13;33.10;99.90
24645;DHT22;12780;45.502;9.146;2022-07-29T12:56:41;33.10;99.90
24645;DHT22;12780;45.502;9.146;2022-07-29T12:59:18;33.30;99.90
24645;DHT22;12780;45.502;9.146;2022-07-29T13:01:46;33.50;99.90
24645;DHT22;12780;45.502;9.146;2022-07-29T13:04:31;33.60;99.90
24645;DHT22;12780;45.502;9.146;2022-07-29T13:07:04;33.60;99.90
24645;DHT22;12780;45.502;9.146;2022-07-29T13:09:43;33.60;99.90
24645;DHT22;12780;45.502;9.146;2022-07-29T13:12:10;33.50;99.90
24645;DHT22;12780;45.502;9.146;2022-07-29T13:17:08;33.40;99.90
24645;DHT22;12780;45.502;9.146;2022-07-29T13:22:04;33.00;99.90
24645;DHT22;12780;45.502;9.146;2022-07-29T13:24:29;33.00;99.90
24645;DHT22;12780;45.502;9.146;2022-07-29T13:26:55;33.00;99.90
24645;DHT22;12780;45.502;9.146;2022-07-29T13:29:21;32.90;99.90
24645;DHT22;12780;45.502;9.146;2022-07-29T13:31:46;32.70;99.90
24645;DHT22;12780;45.502;9.146;2022-07-29T13:34:12;32.50;99.90
24645;DHT22;12780;45.502;9.146;2022-07-29T13:36:38;32.40;99.90
24645;DHT22;12780;45.502;9.146;2022-07-29T13:39:04;32.40;99.90
24645;DHT22;12780;45.502;9.146;2022-07-29T13:41:30;32.40;99.90
24645;DHT22;12780;45.502;9.146;2022-07-29T13:43:55;32.40;99.90
24645;DHT22;12780;45.502;9.146;2022-07-29T13:46:21;32.50;99.90
24645;DHT22;12780;45.502;9.146;2022-07-29T13:48:47;32.60;99.90
24645;DHT22;12780;45.502;9.146;2022-07-29T13:51:12;32.60;99.90
24645;DHT22;12780;45.502;9.146;2022-07-29T13:53:38;32.50;99.90
24645;DHT22;12780;45.502;9.146;2022-07-29T13:56:04;32.40;99.90
24645;DHT22;12780;45.502;9.146;2022-07-29T13:58:33;32.40;99.90
24645;DHT22;12780;45.502;9.146;2022-07-29T14:01:00;32.40;99.90
24645;DHT22;12780;45.502;9.146;2022-07-29T14:03:25;32.40;99.90
24645;DHT22;12780;45.502;9.146;2022-07-29T14:05:51;32.30;99.90
24645;DHT22;12780;45.502;9.146;2022-07-29T14:08:17;32.30;99.90
24645;DHT22;12780;45.502;9.146;2022-07-29T14:10:44;32.40;99.90
24645;DHT22;12780;45.502;9.146;2022-07-29T14:13:10;32.50;99.90
24645;DHT22;12780;45.502;9.146;2022-07-29T14:15:35;32.40;99.90
24645;DHT22;12780;45.502;9.146;2022-07-29T14:18:01;32.30;99.90
24645;DHT22;12780;45.502;9.146;2022-07-29T14:20:27;32.40;99.90
24645;DHT22;12780;45.502;9.146;2022-07-29T14:22:55;32.30;99.90
24645;DHT22;12780;45.502;9.146;2022-07-29T14:25:22;32.30;99.90
24645;DHT22;12780;45.502;9.146;2022-07-29T14:27:47;32.30;99.90
24645;DHT22;12780;45.502;9.146;2022-07-29T14:30:14;32.10;99.90
24645;DHT22;12780;45.502;9.146;2022-07-29T14:32:41;32.10;99.90
24645;DHT22;12780;45.502;9.146;2022-07-29T14:35:07;32.00;99.90
24645;DHT22;12780;45.502;9.146;2022-07-29T14:37:33;31.90;99.90
24645;DHT22;12780;45.502;9.146;2022-07-29T14:40:01;31.80;99.90
24645;DHT22;12780;45.502;9.146;2022-07-29T14:42:28;31.80;99.90
24645;DHT22;12780;45.502;9.146;2022-07-29T14:44:54;31.80;99.90
24645;DHT22;12780;45.502;9.146;2022-07-29T14:47:19;31.70;99.90
24645;DHT22;12780;45.502;9.146;2022-07-29T14:49:47;31.60;99.90
24645;DHT22;12780;45.502;9.146;2022-07-29T14:52:12;31.60;99.90
24645;DHT22;12780;45.502;9.146;2022-07-29T14:54:38;31.60;99.90
24645;DHT22;12780;45.502;9.146;2022-07-29T14:57:03;31.60;99.90
24645;DHT22;12780;45.502;9.146;2022-07-29T14:59:29;31.60;99.90
24645;DHT22;12780;45.502;9.146;2022-07-29T15:01:55;31.60;99.90
24645;DHT22;12780;45.502;9.146;2022-07-29T15:04:20;31.70;99.90
24645;DHT22;12780;45.502;9.146;2022-07-29T15:06:46;31.70;99.90
24645;DHT22;12780;45.502;9.146;2022-07-29T15:09:12;31.70;99.90
24645;DHT22;12780;45.502;9.146;2022-07-29T15:11:37;31.70;99.90
24645;DHT22;12780;45.502;9.146;2022-07-29T15:14:03;31.60;99.90
24645;DHT22;12780;45.502;9.146;2022-07-29T15:16:28;31.50;99.90
24645;DHT22;12780;45.502;9.146;2022-07-29T15:18:54;31.40;99.90
24645;DHT22;12780;45.502;9.146;2022-07-29T15:21:23;31.30;99.90
24645;DHT22;12780;45.502;9.146;2022-07-29T15:23:49;31.20;99.90
24645;DHT22;12780;45.502;9.146;2022-07-29T15:26:14;31.10;99.90
24645;DHT22;12780;45.502;9.146;2022-07-29T15:28:40;30.90;99.90
24645;DHT22;12780;45.502;9.146;2022-07-29T15:31:06;30.70;99.90
24645;DHT22;12780;45.502;9.146;2022-07-29T15:33:32;30.30;99.90
24645;DHT22;12780;45.502;9.146;2022-07-29T15:35:58;29.70;99.90
24645;DHT22;12780;45.502;9.146;2022-07-29T15:38:23;29.30;99.90
24645;DHT22;12780;45.502;9.146;2022-07-29T15:40:49;28.80;99.90
24645;DHT22;12780;45.502;9.146;2022-07-29T15:43:14;28.20;99.90
24645;DHT22;12780;45.502;9.146;2022-07-29T15:45:42;27.80;99.90
24645;DHT22;12780;45.502;9.146;2022-07-29T15:48:26;27.50;99.90
24645;DHT22;12780;45.502;9.146;2022-07-29T15:50:52;27.30;99.90
24645;DHT22;12780;45.502;9.146;2022-07-29T15:53:18;27.20;99.90
24645;DHT22;12780;45.502;9.146;2022-07-29T15:55:43;27.10;99.90
24645;DHT22;12780;45.502;9.146;2022-07-29T15:58:09;27.10;99.90
24645;DHT22;12780;45.502;9.146;2022-07-29T16:00:34;26.90;99.90
24645;DHT22;12780;45.502;9.146;2022-07-29T16:03:00;26.90;99.90
24645;DHT22;12780;45.502;9.146;2022-07-29T16:05:26;26.80;99.90
24645;DHT22;12780;45.502;9.146;2022-07-29T16:07:54;26.90;99.90
24645;DHT22;12780;45.502;9.146;2022-07-29T16:10:19;26.90;99.90
24645;DHT22;12780;45.502;9.146;2022-07-29T16:12:45;26.90;99.90
24645;DHT22;12780;45.502;9.146;2022-07-29T16:15:11;27.00;99.90
24645;DHT22;12780;45.502;9.146;2022-07-29T16:17:37;27.00;99.90
24645;DHT22;12780;45.502;9.146;2022-07-29T16:20:04;27.00;99.90
24645;DHT22;12780;45.502;9.146;2022-07-29T16:22:30;27.00;99.90
24645;DHT22;12780;45.502;9.146;2022-07-29T16:24:56;26.90;99.90